Time;durP1;ratioP1;P1;durP2;ratioP2;P2;SDS_P1;SDS_P2;PMS_P1;PMS_P2;Temp;Humidity;BMP_temperature;BMP_pressure;BME280_temperature;BME280_humidity;BME280_pressure;Samples;Min_cycle;Max_cycle;Signal;HPM_P1;HPM_P2
2022/02/16 00:00:32;;;;;;;4.47;2.30;;;;;;;4.85;87.58;99842.06;6103386;23;20365;-80
2022/02/16 00:02:59;;;;;;;5.77;2.10;;;;;;;4.89;87.31;99836.81;6100236;23;20045;-79
2022/02/16 00:05:25;;;;;;;3.27;1.80;;;;;;;4.88;86.93;99837.69;6098761;23;20018;-80
2022/02/16 00:07:52;;;;;;;4.27;2.10;;;;;;;4.81;86.88;99849.09;6096857;23;20030;-79
2022/02/16 00:10:19;;;;;;;3.73;2.27;;;;;;;4.87;88.05;99843.78;6074369;23;20453;-79
2022/02/16 00:12:47;;;;;;;2.60;1.97;;;;;;;4.94;86.53;99837.59;6095957;23;20030;-81
2022/02/16 00:15:14;;;;;;;2.30;1.80;;;;;;;4.97;86.13;99829.72;6098389;23;20022;-80
2022/02/16 00:17:44;;;;;;;2.70;1.80;;;;;;;5.03;86.77;99829.63;6096801;23;20030;-80
2022/02/16 00:20:12;;;;;;;2.80;1.80;;;;;;;5.00;86.74;99827.06;6097969;23;20028;-80
2022/02/16 00:22:39;;;;;;;4.47;1.97;;;;;;;5.02;88.96;99827.91;6095765;23;20124;-80
2022/02/16 00:25:06;;;;;;;3.90;1.90;;;;;;;5.08;89.77;99822.63;6074292;23;20018;-81
2022/02/16 00:27:40;;;;;;;4.83;2.20;;;;;;;5.06;93.02;99818.28;6120180;23;20033;-80
2022/02/16 00:30:10;;;;;;;2.80;2.00;;;;;;;4.95;94.66;99815.78;6079209;23;20025;-80
2022/02/16 00:32:37;;;;;;;3.30;1.97;;;;;;;4.94;99.18;99818.41;6132375;23;20029;-81
2022/02/16 00:35:07;;;;;;;2.67;2.23;;;;;;;4.80;99.67;99816.81;6136826;23;20013;-80
2022/02/16 00:37:35;;;;;;;5.37;2.10;;;;;;;4.80;100.00;99810.72;6110036;23;20061;-80
2022/02/16 00:40:03;;;;;;;5.43;2.53;;;;;;;4.75;100.00;99800.28;6135373;23;20022;-80
2022/02/16 00:42:31;;;;;;;3.93;2.10;;;;;;;4.68;100.00;99803.84;6110279;23;20029;-80
2022/02/16 00:45:03;;;;;;;3.27;2.33;;;;;;;4.57;100.00;99805.72;6135543;23;20048;-80
2022/02/16 00:47:30;;;;;;;3.10;2.10;;;;;;;4.60;100.00;99804.81;6111047;23;20029;-80
2022/02/16 00:49:57;;;;;;;2.93;1.83;;;;;;;4.52;100.00;99795.28;6134664;23;20022;-80
2022/02/16 00:52:27;;;;;;;3.97;2.30;;;;;;;4.47;100.00;99789.25;6112097;23;20018;-80
2022/02/16 00:54:56;;;;;;;4.73;2.07;;;;;;;4.43;100.00;99787.53;6087619;23;20041;-79
2022/02/16 00:57:23;;;;;;;4.70;2.57;;;;;;;4.44;100.00;99781.41;6088403;23;20045;-80
2022/02/16 00:59:50;;;;;;;4.77;2.27;;;;;;;4.38;100.00;99781.50;6109572;23;20022;-80
2022/02/16 01:02:17;;;;;;;5.53;2.60;;;;;;;4.36;100.00;99785.84;6136187;23;20049;-80
2022/02/16 01:04:43;;;;;;;5.20;2.63;;;;;;;4.29;100.00;99785.91;6136743;23;20053;-80
2022/02/16 01:07:10;;;;;;;3.07;2.33;;;;;;;4.27;100.00;99785.06;6166871;23;20022;-80
2022/02/16 01:09:37;;;;;;;4.23;2.20;;;;;;;4.24;100.00;99779.00;6117712;23;20021;-80
2022/02/16 01:12:04;;;;;;;3.67;2.53;;;;;;;4.28;100.00;99776.34;6166436;23;20026;-79
2022/02/16 01:14:31;;;;;;;2.90;2.20;;;;;;;4.25;100.00;99779.88;6093228;23;20028;-80
2022/02/16 01:16:58;;;;;;;5.03;2.40;;;;;;;4.24;100.00;99768.53;6142094;23;20228;-80
2022/02/16 01:19:25;;;;;;;4.23;2.27;;;;;;;4.24;100.00;99767.69;6117111;23;20081;-80
2022/02/16 01:21:52;;;;;;;3.57;2.70;;;;;;;4.23;100.00;99768.56;6118749;23;20021;-81
2022/02/16 01:24:19;;;;;;;3.97;2.27;;;;;;;4.18;100.00;99762.50;6116333;23;20088;-80
2022/02/16 01:26:46;;;;;;;4.10;2.27;;;;;;;4.22;100.00;99756.38;6140974;23;20018;-80
2022/02/16 01:29:12;;;;;;;3.87;2.20;;;;;;;4.18;100.00;99757.28;6142918;23;20029;-80
2022/02/16 01:31:39;;;;;;;4.10;2.30;;;;;;;4.16;100.00;99746.84;6145067;23;20076;-81
2022/02/16 01:34:06;;;;;;;5.43;2.70;;;;;;;4.17;100.00;99745.94;6147375;23;20022;-80
2022/02/16 01:36:32;;;;;;;3.70;2.33;;;;;;;4.15;100.00;99746.84;6151324;23;20056;-80
2022/02/16 01:39:00;;;;;;;4.53;2.30;;;;;;;4.15;100.00;99752.94;6127211;23;20022;-81
2022/02/16 01:41:27;;;;;;;4.13;2.37;;;;;;;4.14;100.00;99753.81;6150980;23;20037;-79
2022/02/16 01:43:54;;;;;;;4.93;2.27;;;;;;;4.11;100.00;99750.34;6115529;23;20101;-80
2022/02/16 01:46:21;;;;;;;5.93;2.43;;;;;;;4.12;100.00;99742.53;6115489;23;20029;-79
2022/02/16 01:48:48;;;;;;;3.47;2.20;;;;;;;4.01;100.00;99746.97;6139309;23;20029;-80
2022/02/16 01:51:15;;;;;;;5.13;2.27;;;;;;;4.02;100.00;99738.25;6111674;23;20027;-81
2022/02/16 01:53:42;;;;;;;4.73;3.00;;;;;;;4.05;100.00;99729.53;6112348;23;20080;-80
2022/02/16 01:56:09;;;;;;;5.13;2.37;;;;;;;4.10;100.00;99722.50;6114744;23;20024;-81
2022/02/16 01:58:35;;;;;;;6.97;2.67;;;;;;;4.02;100.00;99725.16;6139458;23;20017;-81
2022/02/16 02:01:04;;;;;;;6.37;2.60;;;;;;;4.02;100.00;99724.31;6138020;23;20032;-81
2022/02/16 02:03:32;;;;;;;5.27;2.63;;;;;;;4.03;100.00;99715.59;6114935;23;20596;-81
2022/02/16 02:05:59;;;;;;;3.20;2.07;;;;;;;4.02;100.00;99719.06;6086235;23;20018;-80
2022/02/16 02:08:26;;;;;;;4.17;2.40;;;;;;;4.05;100.00;99711.22;6109202;23;20018;-81
2022/02/16 02:10:56;;;;;;;3.10;2.07;;;;;;;4.01;100.00;99707.75;6133607;23;20457;-80
2022/02/16 02:13:23;;;;;;;4.17;2.70;;;;;;;4.02;100.00;99706.00;6107231;23;20025;-80
2022/02/16 02:15:50;;;;;;;4.60;2.30;;;;;;;4.04;100.00;99697.28;6130554;23;20446;-81
2022/02/16 02:18:18;;;;;;;5.03;3.00;;;;;;;3.99;100.00;99701.69;6131059;23;20045;-80
2022/02/16 02:20:44;;;;;;;6.47;2.90;;;;;;;4.03;100.00;99689.44;6133860;23;20022;-81
2022/02/16 02:23:11;;;;;;;5.00;3.10;;;;;;;4.09;100.00;99677.19;6133728;23;20353;-81
2022/02/16 02:25:52;;;;;;;3.77;3.37;;;;;;;4.08;100.00;99688.53;6110715;23;20389;-80
2022/02/16 02:28:21;;;;;;;5.27;2.97;;;;;;;4.02;100.00;99677.25;6131461;23;20414;-81
2022/02/16 02:30:48;;;;;;;3.70;2.40;;;;;;;3.99;100.00;99672.94;6108538;23;20541;-81
2022/02/16 02:33:16;;;;;;;5.63;3.00;;;;;;;4.02;100.00;99666.81;6130938;23;20022;-80
2022/02/16 02:35:42;;;;;;;4.93;3.00;;;;;;;4.07;100.00;99658.06;6109329;23;20018;-81
2022/02/16 02:38:09;;;;;;;6.10;2.97;;;;;;;4.11;100.00;99661.47;6133129;23;20028;-80
2022/02/16 02:40:36;;;;;;;5.03;2.90;;;;;;;4.12;100.00;99650.16;6083462;23;20026;-80
2022/02/16 02:43:03;;;;;;;5.93;2.83;;;;;;;4.12;100.00;99643.19;6131171;23;20026;-80
2022/02/16 02:45:29;;;;;;;5.13;3.40;;;;;;;4.08;100.00;99638.88;6109118;23;20393;-80
2022/02/16 02:47:56;;;;;;;9.33;3.93;;;;;;;4.05;100.00;99638.91;6107925;23;20033;-81
2022/02/16 02:50:23;;;;;;;4.53;2.90;;;;;;;4.08;100.00;99630.16;6131635;23;20052;-81
2022/02/16 02:52:50;;;;;;;6.40;3.07;;;;;;;4.11;100.00;99630.97;6129856;23;20524;-80
2022/02/16 02:55:16;;;;;;;4.77;3.50;;;;;;;4.09;100.00;99627.53;6131209;23;20022;-80
2022/02/16 02:57:43;;;;;;;7.33;3.40;;;;;;;4.10;100.00;99624.03;6106352;23;20036;-81
2022/02/16 03:00:11;;;;;;;5.43;3.20;;;;;;;4.11;100.00;99623.16;6082105;23;20026;-80
2022/02/16 03:02:38;;;;;;;5.57;3.20;;;;;;;4.08;100.00;99611.88;6129766;23;20442;-81
2022/02/16 03:05:05;;;;;;;7.10;3.33;;;;;;;4.06;100.00;99624.97;6113570;23;20013;-81
2022/02/16 03:07:32;;;;;;;9.90;3.63;;;;;;;4.04;100.00;99604.97;6160627;23;20045;-80
2022/02/16 03:09:59;;;;;;;5.13;3.33;;;;;;;4.04;100.00;99607.56;6138213;23;20021;-80
2022/02/16 03:12:26;;;;;;;6.20;3.20;;;;;;;4.12;100.00;99609.22;6160738;23;20025;-81
2022/02/16 03:14:53;;;;;;;5.83;3.43;;;;;;;4.15;100.00;99590.00;6111730;23;20107;-80
2022/02/16 03:17:19;;;;;;;7.53;3.70;;;;;;;4.13;100.00;99592.66;6135056;23;20544;-81
2022/02/16 03:19:46;;;;;;;7.13;3.77;;;;;;;4.14;100.00;99588.28;6111434;23;20076;-80
2022/02/16 03:22:13;;;;;;;6.27;3.67;;;;;;;4.18;100.00;99587.34;6136879;23;20025;-80
2022/02/16 03:24:40;;;;;;;7.20;3.63;;;;;;;4.18;100.00;99583.00;6158731;23;20042;-80
2022/02/16 03:27:06;;;;;;;5.40;3.17;;;;;;;4.16;100.00;99586.50;6112215;23;20017;-80
2022/02/16 03:29:36;;;;;;;4.77;3.50;;;;;;;4.15;100.00;99584.78;6133655;23;20142;-80
2022/02/16 03:32:03;;;;;;;5.73;3.87;;;;;;;4.25;100.00;99581.16;6112086;23;20021;-80
2022/02/16 03:34:30;;;;;;;6.20;3.60;;;;;;;4.20;100.00;99583.84;6087754;23;20097;-80
2022/02/16 03:36:56;;;;;;;7.30;4.10;;;;;;;4.21;100.00;99574.25;6134801;23;20026;-80
2022/02/16 03:39:23;;;;;;;4.43;3.30;;;;;;;4.15;100.00;99574.34;6107489;23;20036;-81
2022/02/16 03:41:50;;;;;;;7.57;4.73;;;;;;;4.23;100.00;99580.34;6103615;23;20037;-82
2022/02/16 03:44:18;;;;;;;5.73;3.73;;;;;;;4.23;100.00;99577.72;6104127;23;20053;-82
2022/02/16 03:46:45;;;;;;;6.87;4.23;;;;;;;4.27;100.00;99574.16;6104500;23;20029;-81
2022/02/16 03:49:13;;;;;;;5.20;4.20;;;;;;;4.30;100.00;99578.50;6127866;23;20530;-80
2022/02/16 03:51:39;;;;;;;7.13;3.67;;;;;;;4.36;100.00;99579.28;6103256;23;20025;-81
2022/02/16 03:54:06;;;;;;;6.43;3.40;;;;;;;4.29;100.00;99584.59;6126556;23;20453;-81
2022/02/16 03:56:33;;;;;;;8.30;4.80;;;;;;;4.27;100.00;99573.31;6101350;23;20032;-81
2022/02/16 03:59:10;;;;;;;5.33;3.43;;;;;;;4.32;100.00;99566.28;6081232;23;20044;-84
2022/02/16 04:01:36;;;;;;;9.57;3.40;;;;;;;4.33;100.00;99560.16;6038782;23;20042;-83
2022/02/16 04:04:03;;;;;;;7.40;3.53;;;;;;;4.33;100.00;99562.78;6019155;23;20030;-83
2022/02/16 04:06:30;;;;;;;6.23;3.60;;;;;;;4.35;100.00;99553.16;6022861;23;20022;-83
2022/02/16 04:08:57;;;;;;;6.23;4.03;;;;;;;4.36;100.00;99557.50;6045124;23;20022;-84
2022/02/16 04:11:26;;;;;;;5.13;3.27;;;;;;;4.37;100.00;99560.13;6046611;23;20025;-81
2022/02/16 04:13:54;;;;;;;4.53;3.13;;;;;;;4.46;100.00;99554.75;5999296;23;20477;-83
2022/02/16 04:16:24;;;;;;;5.03;3.50;;;;;;;4.39;100.00;99552.25;6047139;23;20019;-83
2022/02/16 04:18:50;;;;;;;5.37;3.57;;;;;;;4.45;100.00;99552.13;6020439;23;20023;-84
2022/02/16 04:21:17;;;;;;;6.20;3.47;;;;;;;4.50;100.00;99542.50;6019799;23;20029;-81
2022/02/16 04:23:44;;;;;;;6.00;3.40;;;;;;;4.48;100.00;99539.03;5992096;23;20027;-81
2022/02/16 04:26:11;;;;;;;6.20;3.10;;;;;;;4.43;100.00;99536.47;5993091;23;20366;-83
2022/02/16 04:28:38;;;;;;;6.67;3.83;;;;;;;4.46;100.00;99546.06;6014292;23;20030;-80
2022/02/16 04:31:04;;;;;;;4.33;3.20;;;;;;;4.38;100.00;99543.53;6015798;23;20033;-82
2022/02/16 04:33:31;;;;;;;5.23;3.50;;;;;;;4.53;100.00;99531.97;5989457;23;20105;-83
2022/02/16 04:35:58;;;;;;;4.53;2.90;;;;;;;4.49;100.00;99536.41;6016313;23;20098;-80
2022/02/16 04:38:24;;;;;;;4.33;2.90;;;;;;;4.49;100.00;99535.53;6014082;23;20037;-80
2022/02/16 04:40:51;;;;;;;4.97;3.20;;;;;;;4.50;100.00;99545.97;6015851;23;20026;-82
2022/02/16 04:43:18;;;;;;;5.07;2.83;;;;;;;4.47;100.00;99543.41;6014746;23;20026;-81
2022/02/16 04:45:44;;;;;;;7.37;3.40;;;;;;;4.57;100.00;99540.66;5992795;23;20324;-81
2022/02/16 04:48:11;;;;;;;5.33;3.13;;;;;;;4.56;100.00;99539.81;6014484;23;20117;-81
2022/02/16 04:50:38;;;;;;;5.63;3.03;;;;;;;4.53;100.00;99530.22;6038829;23;20033;-82
2022/02/16 04:53:04;;;;;;;5.30;3.10;;;;;;;4.52;100.00;99528.50;6038015;23;20053;-80
2022/02/16 04:55:32;;;;;;;5.97;3.23;;;;;;;4.55;100.00;99519.78;6016092;23;20054;-81
2022/02/16 04:57:59;;;;;;;4.27;3.30;;;;;;;4.55;100.00;99517.16;5990903;23;20035;-82
2022/02/16 05:00:25;;;;;;;4.63;2.80;;;;;;;4.62;100.00;99525.75;6029700;23;20101;-80
2022/02/16 05:02:52;;;;;;;5.20;3.10;;;;;;;4.54;100.00;99525.88;6042441;23;20031;-81
2022/02/16 05:05:19;;;;;;;4.67;3.07;;;;;;;4.65;100.00;99526.59;6044402;23;20022;-80
2022/02/16 05:07:45;;;;;;;3.90;3.00;;;;;;;4.64;100.00;99518.78;6041537;23;20069;-81
2022/02/16 05:10:12;;;;;;;5.17;3.43;;;;;;;4.60;100.00;99519.69;6020464;23;20022;-81
2022/02/16 05:12:40;;;;;;;5.90;2.83;;;;;;;4.55;100.00;99519.78;6042443;23;20030;-81
2022/02/16 05:15:08;;;;;;;3.50;2.70;;;;;;;4.59;100.00;99510.97;6068250;23;20030;-82
2022/02/16 05:17:35;;;;;;;3.67;2.67;;;;;;;4.70;100.00;99516.03;6066055;23;20018;-81
2022/02/16 05:20:01;;;;;;;4.40;2.70;;;;;;;4.65;100.00;99515.25;6043933;23;20022;-81
2022/02/16 05:22:29;;;;;;;4.77;2.90;;;;;;;4.63;100.00;99512.69;6067514;23;20029;-81
2022/02/16 05:24:58;;;;;;;3.73;2.67;;;;;;;4.71;100.00;99509.94;6090264;23;20065;-81
2022/02/16 05:27:25;;;;;;;4.23;2.47;;;;;;;4.76;100.00;99510.72;6067933;23;20027;-80
2022/02/16 05:29:52;;;;;;;5.63;3.23;;;;;;;4.80;100.00;99512.41;6019865;23;20027;-81
2022/02/16 05:32:18;;;;;;;5.03;2.80;;;;;;;4.76;100.00;99513.34;6020431;23;20022;-79
2022/02/16 05:34:45;;;;;;;3.93;2.50;;;;;;;4.77;100.00;99513.31;6042524;23;20538;-79
2022/02/16 05:37:12;;;;;;;4.77;2.80;;;;;;;4.79;100.00;99505.44;6021302;23;20477;-80
2022/02/16 05:39:39;;;;;;;4.83;2.70;;;;;;;4.79;100.00;99505.44;6019436;23;20022;-79
2022/02/16 05:42:05;;;;;;;5.17;2.43;;;;;;;4.79;100.00;99508.03;6020942;23;20027;-79
2022/02/16 05:44:32;;;;;;;4.70;2.57;;;;;;;4.85;100.00;99496.63;6019993;23;20453;-79
2022/02/16 05:46:59;;;;;;;5.50;2.80;;;;;;;4.83;100.00;99490.56;6044630;23;20022;-79
2022/02/16 05:49:26;;;;;;;3.33;2.63;;;;;;;4.84;100.00;99498.38;6019377;23;20058;-79
2022/02/16 05:51:52;;;;;;;4.70;2.60;;;;;;;4.79;100.00;99485.41;6020131;23;20049;-79
2022/02/16 05:54:19;;;;;;;4.10;2.50;;;;;;;4.76;100.00;99485.41;6043065;23;20022;-80
2022/02/16 05:56:46;;;;;;;5.10;3.07;;;;;;;4.77;100.00;99476.69;6018960;23;20022;-80
2022/02/16 05:59:13;;;;;;;3.63;2.50;;;;;;;4.87;100.00;99471.28;6017998;23;20026;-80
2022/02/16 06:01:39;;;;;;;3.63;2.60;;;;;;;4.83;100.00;99477.47;6043085;23;20026;-80
2022/02/16 06:04:06;;;;;;;4.70;2.53;;;;;;;4.89;100.00;99465.16;6041911;23;20023;-79
2022/02/16 06:06:33;;;;;;;4.47;2.67;;;;;;;4.90;100.00;99464.28;6043740;23;20533;-79
2022/02/16 06:09:06;;;;;;;4.20;2.43;;;;;;;4.85;100.00;99460.00;6020980;23;20028;-79
2022/02/16 06:11:32;;;;;;;4.93;2.70;;;;;;;4.84;100.00;99456.50;6043981;23;20082;-80
2022/02/16 06:13:59;;;;;;;3.33;2.37;;;;;;;4.93;100.00;99455.50;6065231;23;20026;-80
2022/02/16 06:16:26;;;;;;;4.40;2.40;;;;;;;4.92;100.00;99448.53;6066532;23;20022;-79
2022/02/16 06:18:52;;;;;;;3.93;2.27;;;;;;;5.02;100.00;99443.13;6065854;23;20030;-79
2022/02/16 06:21:19;;;;;;;3.90;2.17;;;;;;;5.05;100.00;99455.31;6067917;23;20022;-79
2022/02/16 06:23:46;;;;;;;3.43;2.10;;;;;;;5.02;100.00;99448.34;6067530;23;20022;-79
2022/02/16 06:26:12;;;;;;;2.73;2.20;;;;;;;5.05;100.00;99447.47;6045330;23;20018;-79
2022/02/16 06:28:39;;;;;;;3.77;2.77;;;;;;;4.98;100.00;99457.16;6067551;23;20026;-80
2022/02/16 06:31:07;;;;;;;3.30;2.03;;;;;;;5.01;100.00;99451.00;6092747;23;20026;-80
2022/02/16 06:33:34;;;;;;;4.00;2.87;;;;;;;5.00;100.00;99447.53;6018615;23;20066;-79
2022/02/16 06:36:01;;;;;;;4.27;2.27;;;;;;;5.00;100.00;99446.66;6022845;23;20022;-79
2022/02/16 06:38:28;;;;;;;3.17;2.27;;;;;;;5.01;100.00;99441.38;6044629;23;20391;-79
2022/02/16 06:40:55;;;;;;;3.30;2.40;;;;;;;5.07;100.00;99422.09;6046250;23;20026;-79
2022/02/16 06:43:22;;;;;;;2.70;1.90;;;;;;;5.12;100.00;99425.47;6044828;23;20023;-79
2022/02/16 06:45:49;;;;;;;2.63;2.03;;;;;;;5.06;100.00;99416.00;6070190;23;20019;-79
2022/02/16 06:48:16;;;;;;;3.80;2.20;;;;;;;5.06;100.00;99409.91;6068945;23;20032;-79
2022/02/16 06:50:43;;;;;;;3.67;2.60;;;;;;;5.01;100.00;99409.97;6046230;23;20513;-79
2022/02/16 06:53:10;;;;;;;4.70;2.30;;;;;;;5.00;100.00;99399.53;6068534;23;20026;-79
2022/02/16 06:55:37;;;;;;;4.43;2.33;;;;;;;5.02;100.00;99401.22;6046292;23;20472;-79
2022/02/16 06:58:04;;;;;;;2.90;2.10;;;;;;;4.96;100.00;99403.09;6021408;23;20026;-80
2022/02/16 07:00:30;;;;;;;3.27;2.40;;;;;;;5.01;100.00;99396.03;6046070;23;20059;-80
2022/02/16 07:02:57;;;;;;;2.67;2.17;;;;;;;4.97;100.00;99383.91;6068263;23;20026;-79
2022/02/16 07:05:24;;;;;;;4.70;2.83;;;;;;;4.99;100.00;99382.97;6046803;23;20018;-79
2022/02/16 07:07:51;;;;;;;3.17;2.30;;;;;;;4.95;100.00;99378.69;6068669;23;20022;-80
2022/02/16 07:10:18;;;;;;;4.53;2.33;;;;;;;4.94;100.00;99376.94;6045738;23;20347;-80
2022/02/16 07:12:44;;;;;;;6.23;2.60;;;;;;;4.96;100.00;99364.72;6044080;23;20030;-79
2022/02/16 07:15:11;;;;;;;3.93;2.70;;;;;;;4.96;100.00;99362.09;6070283;23;20022;-78
2022/02/16 07:17:39;;;;;;;3.20;2.43;;;;;;;5.00;100.00;99379.47;6021276;23;20089;-80
2022/02/16 07:20:11;;;;;;;3.33;2.33;;;;;;;4.95;100.00;99373.44;6046204;23;20022;-80
2022/02/16 07:22:40;;;;;;;4.17;2.77;;;;;;;4.95;100.00;99373.44;6044144;23;20032;-80
2022/02/16 07:25:08;;;;;;;3.93;2.47;;;;;;;4.97;100.00;99370.81;6046288;23;20022;-80
2022/02/16 07:27:34;;;;;;;5.23;2.40;;;;;;;4.95;100.00;99364.72;6045068;23;20045;-80
2022/02/16 07:30:04;;;;;;;5.73;2.83;;;;;;;4.97;100.00;99371.69;6045389;23;20026;-81
2022/02/16 07:32:31;;;;;;;4.17;2.90;;;;;;;4.97;100.00;99370.81;6068465;23;20029;-80
2022/02/16 07:34:57;;;;;;;3.90;2.97;;;;;;;4.96;100.00;99359.50;6045883;23;20052;-80
2022/02/16 07:37:25;;;;;;;4.00;2.67;;;;;;;4.93;100.00;99346.44;6069338;23;20046;-80
2022/02/16 07:39:52;;;;;;;3.87;2.63;;;;;;;4.92;100.00;99349.09;6021464;23;20026;-81
2022/02/16 07:42:19;;;;;;;5.37;3.57;;;;;;;4.95;100.00;99344.66;6069510;23;20065;-80
2022/02/16 07:44:45;;;;;;;7.87;3.60;;;;;;;4.94;100.00;99326.38;6021308;23;20030;-81
2022/02/16 07:47:12;;;;;;;5.20;2.80;;;;;;;5.02;100.00;99335.78;6045661;23;20466;-80
2022/02/16 07:49:39;;;;;;;3.70;2.83;;;;;;;5.00;100.00;99323.63;6091977;23;20034;-80
2022/02/16 07:52:06;;;;;;;4.00;3.20;;;;;;;5.06;100.00;99300.84;6021735;23;20029;-80
2022/02/16 07:54:33;;;;;;;5.13;3.93;;;;;;;5.15;100.00;99285.84;6020537;23;20033;-80
2022/02/16 07:57:00;;;;;;;4.73;3.10;;;;;;;5.18;100.00;99291.84;6045889;23;20509;-81
2022/02/16 07:59:28;;;;;;;4.17;2.43;;;;;;;5.18;100.00;99293.63;6020311;23;20034;-80
2022/02/16 08:01:58;;;;;;;4.40;3.27;;;;;;;5.20;100.00;99291.81;6046243;23;20513;-80
2022/02/16 08:04:26;;;;;;;3.70;3.27;;;;;;;5.24;100.00;99281.25;6044882;23;20085;-81
2022/02/16 08:06:53;;;;;;;4.37;2.67;;;;;;;5.22;100.00;99275.22;6046516;23;20018;-80
2022/02/16 08:09:21;;;;;;;4.30;3.70;;;;;;;5.23;100.00;99273.44;6044164;23;20487;-80
2022/02/16 08:11:48;;;;;;;3.73;3.00;;;;;;;5.21;100.00;99260.41;6044706;23;20143;-80
2022/02/16 08:14:15;;;;;;;4.33;3.23;;;;;;;5.24;100.00;99255.09;6044139;23;20022;-80
2022/02/16 08:16:42;;;;;;;9.13;3.37;;;;;;;5.24;100.00;99249.84;6070081;23;20477;-81
2022/02/16 08:19:10;;;;;;;4.37;3.13;;;;;;;5.20;100.00;99250.78;6043372;23;20509;-80
2022/02/16 08:21:38;;;;;;;4.70;3.00;;;;;;;5.26;100.00;99241.94;6045012;23;20033;-81
2022/02/16 08:24:06;;;;;;;3.53;2.77;;;;;;;5.21;100.00;99242.06;6044315;23;20215;-80
2022/02/16 08:26:33;;;;;;;3.57;2.73;;;;;;;5.25;100.00;99232.38;6069503;23;20069;-82
2022/02/16 08:29:00;;;;;;;3.30;2.90;;;;;;;5.28;100.00;99227.06;6043908;23;20034;-80
2022/02/16 08:31:27;;;;;;;4.53;3.00;;;;;;;5.32;100.00;99213.88;6021039;23;20027;-80
2022/02/16 08:33:54;;;;;;;5.00;3.10;;;;;;;5.28;100.00;99200.88;6020128;23;20030;-80
2022/02/16 08:36:20;;;;;;;4.10;2.80;;;;;;;5.30;100.00;99186.88;6043022;23;20029;-81
2022/02/16 08:38:47;;;;;;;5.00;3.73;;;;;;;5.39;100.00;99192.81;6044032;23;20034;-80
2022/02/16 08:41:14;;;;;;;3.53;2.77;;;;;;;5.39;100.00;99185.81;6045101;23;20029;-80
2022/02/16 08:43:41;;;;;;;4.30;2.50;;;;;;;5.40;100.00;99179.66;6044136;23;20022;-80
2022/02/16 08:46:08;;;;;;;5.10;2.70;;;;;;;5.41;100.00;99176.16;6045787;23;20422;-80
2022/02/16 08:48:37;;;;;;;6.23;3.70;;;;;;;5.45;100.00;99164.69;6067367;23;20053;-80
2022/02/16 08:51:04;;;;;;;4.13;3.00;;;;;;;5.46;100.00;99158.53;6044509;23;20026;-80
2022/02/16 08:53:31;;;;;;;3.83;2.60;;;;;;;5.44;100.00;99155.13;6020062;23;20022;-80
2022/02/16 08:55:58;;;;;;;3.13;2.40;;;;;;;5.49;100.00;99155.00;6045657;23;20022;-81
2022/02/16 08:58:26;;;;;;;4.47;2.67;;;;;;;5.48;100.00;99142.81;6044152;23;20033;-80
2022/02/16 09:00:53;;;;;;;3.30;2.53;;;;;;;5.47;100.00;99138.47;6069158;23;20082;-80
2022/02/16 09:03:20;;;;;;;3.13;2.53;;;;;;;5.48;100.00;99143.69;6044124;23;20026;-80
2022/02/16 09:05:47;;;;;;;4.03;2.20;;;;;;;5.49;100.00;99127.06;6069968;23;20026;-80
2022/02/16 09:08:14;;;;;;;3.20;2.20;;;;;;;5.51;100.00;99138.34;6068279;23;20026;-80
2022/02/16 09:10:40;;;;;;;2.70;2.20;;;;;;;5.49;100.00;99124.44;6022340;23;20030;-81
2022/02/16 09:13:07;;;;;;;3.47;2.00;;;;;;;5.46;100.00;99126.25;6028919;23;20065;-81
2022/02/16 09:15:34;;;;;;;3.20;2.10;;;;;;;5.48;100.00;99120.09;6057290;23;20032;-81
2022/02/16 09:18:02;;;;;;;2.40;1.90;;;;;;;5.54;100.00;99114.69;6055841;23;20046;-81
2022/02/16 09:20:29;;;;;;;2.97;2.00;;;;;;;5.51;100.00;99116.53;6030269;23;20037;-81
2022/02/16 09:22:56;;;;;;;4.03;2.63;;;;;;;5.53;100.00;99106.88;6026335;23;20041;-81
2022/02/16 09:25:23;;;;;;;2.00;1.80;;;;;;;5.54;100.00;99098.13;6029026;23;20030;-81
2022/02/16 09:27:51;;;;;;;3.70;1.70;;;;;;;5.52;100.00;99113.88;6029663;23;20023;-81
2022/02/16 09:30:18;;;;;;;2.20;2.00;;;;;;;5.53;100.00;99089.41;6050656;23;20101;-81
2022/02/16 09:32:47;;;;;;;2.57;1.97;;;;;;;5.50;100.00;99086.00;6052962;23;20148;-80
2022/02/16 09:35:14;;;;;;;2.77;2.10;;;;;;;5.50;100.00;99083.41;6079979;23;20025;-81
2022/02/16 09:37:41;;;;;;;5.00;3.50;;;;;;;5.52;100.00;99064.09;6031615;23;20087;-81
2022/02/16 09:40:07;;;;;;;4.10;3.33;;;;;;;5.61;100.00;99070.88;6058361;23;20022;-81
2022/02/16 09:42:35;;;;;;;28.73;17.87;;;;;;;5.67;100.00;99059.38;6055690;23;20029;-79
2022/02/16 09:45:05;;;;;;;3.17;2.43;;;;;;;5.70;100.00;99051.44;6060981;23;20513;-82
2022/02/16 09:47:33;;;;;;;5.27;3.60;;;;;;;5.73;100.00;99051.38;6080049;23;20028;-81
2022/02/16 09:50:03;;;;;;;3.50;2.33;;;;;;;5.68;100.00;99042.75;6030935;23;20029;-82
2022/02/16 09:52:31;;;;;;;2.77;2.20;;;;;;;5.71;100.00;99032.19;6081521;23;20026;-82
2022/02/16 09:54:59;;;;;;;3.07;2.00;;;;;;;5.70;100.00;99023.47;6057285;23;20050;-80
2022/02/16 09:57:27;;;;;;;2.33;2.13;;;;;;;5.68;100.00;99041.00;6010387;23;20073;-81
2022/02/16 09:59:58;;;;;;;3.40;3.10;;;;;;;5.67;100.00;99030.56;6077435;23;20033;-81
2022/02/16 10:02:34;;;;;;;3.17;2.53;;;;;;;5.55;100.00;99016.91;6073631;23;20461;-82
2022/02/16 10:05:02;;;;;;;2.60;1.80;;;;;;;5.57;100.00;99011.63;6079047;23;20516;-81
2022/02/16 10:07:33;;;;;;;3.10;2.50;;;;;;;5.62;100.00;99001.84;6048212;23;20030;-83
2022/02/16 10:10:24;;;;;;;2.30;1.90;;;;;;;5.67;100.00;98994.75;6056075;23;20034;-83
2022/02/16 10:12:53;;;;;;;2.20;1.80;;;;;;;5.72;100.00;98997.22;6046094;23;20060;-82
2022/02/16 10:15:34;;;;;;;3.53;2.30;;;;;;;5.69;100.00;98979.84;6072454;23;20027;-83
2022/02/16 10:18:08;;;;;;;4.10;2.17;;;;;;;5.73;100.00;98983.25;6069512;23;20019;-83
2022/02/16 10:20:36;;;;;;;2.33;1.87;;;;;;;5.74;100.00;98974.47;6029517;23;20054;-83
2022/02/16 10:23:03;;;;;;;3.40;2.07;;;;;;;5.72;100.00;98971.91;6031658;23;20460;-85
2022/02/16 10:25:35;;;;;;;4.57;2.00;;;;;;;5.65;100.00;98962.50;6059314;23;20023;-83
2022/02/16 10:28:16;;;;;;;3.47;2.33;;;;;;;5.69;100.00;98966.72;6045811;23;20061;-83
2022/02/16 10:30:56;;;;;;;3.90;2.13;;;;;;;5.69;100.00;98955.41;6069420;23;20033;-83
2022/02/16 10:33:36;;;;;;;4.70;2.07;;;;;;;5.62;100.00;98949.47;6068024;23;20074;-83
2022/02/16 10:36:16;;;;;;;6.87;3.83;;;;;;;5.63;100.00;98944.19;6047403;23;20058;-83
2022/02/16 10:39:03;;;;;;;2.37;1.77;;;;;;;5.67;100.00;98933.63;6068924;23;20026;-83
2022/02/16 10:41:49;;;;;;;3.03;2.00;;;;;;;5.69;100.00;98919.56;6069642;23;20058;-82
2022/02/16 10:44:20;;;;;;;3.57;2.60;;;;;;;5.64;100.00;98909.25;6043497;23;20427;-83
2022/02/16 10:47:03;;;;;;;3.37;1.50;;;;;;;5.66;100.00;98890.84;6045529;23;20023;-81
2022/02/16 10:49:31;;;;;;;2.27;1.80;;;;;;;5.64;100.00;98890.91;6043490;23;20025;-82
2022/02/16 10:52:15;;;;;;;2.40;1.50;;;;;;;5.66;100.00;98875.13;6068331;23;20082;-81
2022/02/16 10:54:54;;;;;;;1.90;1.57;;;;;;;5.63;100.00;98868.22;6043636;23;20029;-82
2022/02/16 10:57:21;;;;;;;3.17;1.80;;;;;;;5.69;100.00;98872.41;6069109;23;20018;-83
2022/02/16 10:59:48;;;;;;;1.93;1.60;;;;;;;5.73;100.00;98845.22;6021937;23;20656;-81
2022/02/16 11:02:25;;;;;;;1.87;1.50;;;;;;;5.74;100.00;98835.59;6027074;23;20077;-84
2022/02/16 11:04:53;;;;;;;2.60;1.40;;;;;;;5.69;100.00;98840.13;6022567;23;20022;-82
2022/02/16 11:07:22;;;;;;;1.77;1.33;;;;;;;5.69;100.00;98820.00;6046493;23;20073;-82
2022/02/16 11:09:52;;;;;;;3.83;2.10;;;;;;;5.70;100.00;98818.25;6054056;23;20081;-83
2022/02/16 11:12:19;;;;;;;1.90;1.50;;;;;;;5.76;100.00;98812.84;6045661;23;20517;-81
2022/02/16 11:14:45;;;;;;;2.07;1.20;;;;;;;5.78;100.00;98804.00;6021683;23;20434;-83
2022/02/16 11:17:12;;;;;;;1.83;1.40;;;;;;;5.78;100.00;98811.88;6046353;23;20022;-85
2022/02/16 11:19:42;;;;;;;2.77;1.60;;;;;;;5.80;100.00;98788.22;6045372;23;20398;-83
2022/02/16 11:22:13;;;;;;;2.43;1.40;;;;;;;5.83;100.00;98786.38;6046086;23;20477;-83
2022/02/16 11:24:43;;;;;;;1.70;1.43;;;;;;;5.83;100.00;98770.66;6044675;23;20354;-82
2022/02/16 11:27:34;;;;;;;1.50;1.30;;;;;;;5.85;100.00;98771.47;6046513;23;20023;-85
2022/02/16 11:30:05;;;;;;;1.90;1.50;;;;;;;5.92;100.00;98759.94;6022949;23;20033;-83
2022/02/16 11:32:35;;;;;;;1.80;1.70;;;;;;;5.97;100.00;98744.06;6068628;23;20521;-85
2022/02/16 11:35:13;;;;;;;2.10;1.70;;;;;;;6.03;100.00;98732.50;6046972;23;20478;-84
2022/02/16 11:37:39;;;;;;;2.53;1.70;;;;;;;6.05;100.00;98728.06;6052275;23;20026;-83